الصفحة الرئيسية
METAR-TAF:

METAR-TAF

مطار :

أيو جيما, اليابان

دائرة عرض: 24-47N, خط طول: 141-19E, ارتفاع: 113 متر

مراقبة الطقس الحالي

تاريخ ووقت الإصدار 56 دقيقة قبل الساعة 06:00UTC
ريح 11 عقدة من الشمال, الاتجاه يتراوح بين الشمال/الشمال الغربي و الشمال الشرقي
درجة الحرارة 24°درجة مئوية
الرطوبة 69%
ضغط 1012 hPa
الرؤية 10 كم أو أكثر
غيوم متفرقة على ارتفاع 1500 قدم
غيوم مفككة على ارتفاع 2000 قدم

METAR: RJAW 060600Z 01011KT 340V040 9999 SCT015 BKN020 24/18 Q1012 RMK 3CU015 6CU020 A2990

زمن: 15:56 (06:56 UTC)


TAF: مفقودة

أرصاد الطقس والتوقعات من أكثر من 4000 مطار (تقارير الطقس للمطار METAR والتنبؤ بالطقس بالمطارTAF).

المحطات المتاحة هي النقط الصفراء والحمراء على الخريطة.

حرك المؤشر فوق النقطة لمعرفة اسم المحطة.

ثم انقر لمعرفة أرصاد وتوقعات الطقس.

لتغيير الخارطة: اضغط على الأزرار الخضراء مع رمز الصليب الأسود للتكبير. على الزر الأخضر مع شرطة للتصغير، أو على الأسهم الخضراء للخرائط المجاورة.


METAR-TAF: